Time;durP1;ratioP1;P1;durP2;ratioP2;P2;SDS_P1;SDS_P2;PMS_P1;PMS_P2;Temp;Humidity;BMP_temperature;BMP_pressure;BME280_temperature;BME280_humidity;BME280_pressure;Samples;Min_cycle;Max_cycle;Signal;HPM_P1;HPM_P2
2021/05/15 00:00:34;;;;;;;1.37;0.60;;;13.20;72.90;;;;;;2590953;53;20917;-75
2021/05/15 00:03:00;;;;;;;1.87;0.80;;;13.20;73.00;;;;;;2366315;53;20917;-73
2021/05/15 00:05:26;;;;;;;1.55;0.70;;;13.10;73.00;;;;;;2590979;53;20960;-73
2021/05/15 00:07:53;;;;;;;1.52;0.60;;;13.10;73.10;;;;;;2558517;53;21044;-73
2021/05/15 00:10:24;;;;;;;2.17;0.65;;;13.10;73.10;;;;;;2360205;53;21575;-73
2021/05/15 00:12:50;;;;;;;1.10;0.50;;;13.10;73.00;;;;;;2418663;53;21005;-73
2021/05/15 00:15:16;;;;;;;1.62;0.60;;;13.10;73.30;;;;;;2562399;53;20965;-73
2021/05/15 00:17:44;;;;;;;1.87;0.68;;;13.10;73.40;;;;;;2576670;53;20936;-73
2021/05/15 00:20:13;;;;;;;2.58;0.73;;;13.10;73.40;;;;;;2586816;53;21366;-72
2021/05/15 00:22:40;;;;;;;1.58;0.68;;;13.20;73.50;;;;;;2529106;53;21580;-73
2021/05/15 00:25:07;;;;;;;2.03;0.60;;;13.20;73.60;;;;;;2337616;53;20928;-74
2021/05/15 00:27:33;;;;;;;1.85;0.50;;;13.20;73.70;;;;;;2460149;53;21024;-71
2021/05/15 00:29:59;;;;;;;1.83;0.60;;;13.20;73.70;;;;;;2590707;53;20965;-73
2021/05/15 00:32:25;;;;;;;1.12;0.60;;;13.20;73.80;;;;;;2590673;53;21087;-74
2021/05/15 00:34:51;;;;;;;1.52;0.60;;;13.20;73.60;;;;;;2428019;53;21760;-75
2021/05/15 00:37:17;;;;;;;1.35;0.60;;;13.20;73.50;;;;;;2590901;53;20987;-73
2021/05/15 00:39:43;;;;;;;2.78;0.80;;;13.20;73.70;;;;;;2553563;53;21724;-74
2021/05/15 00:42:10;;;;;;;1.45;0.60;;;13.20;73.70;;;;;;2514531;53;21484;-74
2021/05/15 00:44:45;;;;;;;1.77;0.68;;;13.30;73.80;;;;;;2416724;53;20925;-73
2021/05/15 00:47:21;;;;;;;1.87;0.77;;;13.30;73.90;;;;;;2478453;53;20973;-75
2021/05/15 00:49:47;;;;;;;1.62;0.80;;;13.30;73.50;;;;;;2344659;54;20976;-75
2021/05/15 00:52:14;;;;;;;1.67;0.70;;;13.30;73.60;;;;;;2590640;53;20940;-70
2021/05/15 00:54:43;;;;;;;1.08;0.50;;;13.30;73.70;;;;;;2577949;53;20937;-72
2021/05/15 00:57:10;;;;;;;3.87;0.80;;;13.30;74.30;;;;;;2458713;53;20946;-74
2021/05/15 00:59:36;;;;;;;1.45;0.50;;;13.30;73.70;;;;;;2591037;53;20913;-72
2021/05/15 01:02:02;;;;;;;3.05;0.75;;;13.40;73.70;;;;;;2577384;53;20925;-73
2021/05/15 01:04:28;;;;;;;1.77;0.68;;;13.30;73.40;;;;;;2557677;53;20936;-74
2021/05/15 01:06:57;;;;;;;1.42;0.70;;;13.30;73.30;;;;;;2345282;54;26567;-72
2021/05/15 01:09:23;;;;;;;1.65;0.70;;;13.30;73.30;;;;;;2560723;53;20925;-71
2021/05/15 01:11:49;;;;;;;1.42;0.60;;;13.30;73.30;;;;;;2557332;53;21024;-74
2021/05/15 01:14:15;;;;;;;2.47;0.70;;;13.40;73.30;;;;;;2368470;54;20902;-74
2021/05/15 01:16:41;;;;;;;1.58;0.65;;;13.30;73.20;;;;;;2490912;53;20945;-72
2021/05/15 01:19:07;;;;;;;2.12;0.73;;;13.30;73.10;;;;;;2466137;53;20997;-73
2021/05/15 01:21:33;;;;;;;1.98;0.73;;;13.30;73.00;;;;;;2590510;53;21276;-71
2021/05/15 01:23:59;;;;;;;2.53;0.60;;;13.30;72.90;;;;;;2555896;53;21011;-72
2021/05/15 01:26:28;;;;;;;2.17;0.75;;;13.30;72.90;;;;;;2477586;54;21824;-73
2021/05/15 01:28:56;;;;;;;1.62;0.62;;;13.30;73.00;;;;;;2530145;53;20945;-73
2021/05/15 01:31:21;;;;;;;1.05;0.50;;;13.30;72.90;;;;;;2413357;53;21786;-71
2021/05/15 01:33:49;;;;;;;1.30;0.50;;;13.20;72.90;;;;;;2525329;53;21056;-73
2021/05/15 01:36:15;;;;;;;2.30;0.60;;;13.20;72.90;;;;;;2415232;53;21783;-75
2021/05/15 01:38:44;;;;;;;1.40;0.60;;;13.20;73.00;;;;;;2479263;53;20940;-74
2021/05/15 01:41:14;;;;;;;0.82;0.50;;;13.20;72.90;;;;;;2483215;53;21521;-75
2021/05/15 01:43:40;;;;;;;1.35;0.60;;;13.20;72.90;;;;;;2542744;53;20919;-75
2021/05/15 01:46:06;;;;;;;2.60;0.60;;;13.20;73.00;;;;;;2440253;53;21009;-74
2021/05/15 01:48:32;;;;;;;1.27;0.40;;;13.20;72.90;;;;;;2575254;53;20981;-73
2021/05/15 01:51:00;;;;;;;1.60;0.50;;;13.20;72.90;;;;;;2460772;53;20981;-74
2021/05/15 01:53:26;;;;;;;1.33;0.57;;;13.20;72.90;;;;;;2572724;53;21762;-73
2021/05/15 01:55:53;;;;;;;0.82;0.40;;;13.20;72.90;;;;;;2340910;54;20925;-71
2021/05/15 01:58:19;;;;;;;1.27;0.60;;;13.10;72.90;;;;;;2351296;53;21004;-74
2021/05/15 02:00:45;;;;;;;0.95;0.40;;;13.10;72.90;;;;;;2590786;53;21667;-74
2021/05/15 02:03:12;;;;;;;0.75;0.40;;;13.10;73.00;;;;;;2590600;53;20917;-71
2021/05/15 02:05:38;;;;;;;2.03;0.57;;;13.20;73.20;;;;;;2545492;53;20989;-71
2021/05/15 02:08:04;;;;;;;0.55;0.37;;;13.10;73.20;;;;;;2590997;53;20893;-73
2021/05/15 02:10:30;;;;;;;1.37;0.50;;;13.10;73.30;;;;;;2338748;53;21032;-74
2021/05/15 02:12:56;;;;;;;1.15;0.60;;;13.10;73.40;;;;;;2443529;53;20933;-74
2021/05/15 02:15:22;;;;;;;1.00;0.50;;;13.10;73.50;;;;;;2580977;53;20918;-73
2021/05/15 02:17:48;;;;;;;1.45;0.60;;;13.20;73.60;;;;;;2502500;53;21018;-73
2021/05/15 02:20:14;;;;;;;2.10;0.57;;;13.20;73.70;;;;;;2590452;53;20921;-72
2021/05/15 02:22:41;;;;;;;1.17;0.50;;;13.20;73.80;;;;;;2326567;54;21023;-73
2021/05/15 02:25:08;;;;;;;1.48;0.50;;;13.20;73.80;;;;;;2479126;53;21021;-73
2021/05/15 02:27:34;;;;;;;2.03;0.70;;;13.20;73.90;;;;;;2357787;53;21056;-72
2021/05/15 02:30:00;;;;;;;1.73;0.60;;;13.20;73.90;;;;;;2590543;53;20953;-75
2021/05/15 02:32:26;;;;;;;2.17;0.70;;;13.30;74.00;;;;;;2420951;53;21421;-73
2021/05/15 02:34:52;;;;;;;2.90;0.50;;;13.30;73.90;;;;;;2363647;53;20956;-72
2021/05/15 02:37:18;;;;;;;2.15;0.60;;;13.30;74.00;;;;;;2353844;54;20988;-74
2021/05/15 02:39:43;;;;;;;1.62;0.50;;;13.30;73.80;;;;;;2477414;53;20989;-75
2021/05/15 02:42:09;;;;;;;1.48;0.65;;;13.30;73.70;;;;;;2408416;53;21417;-72
2021/05/15 02:44:35;;;;;;;1.65;0.47;;;13.30;73.70;;;;;;2590510;53;20913;-71
2021/05/15 02:47:01;;;;;;;1.42;0.50;;;13.30;73.70;;;;;;2455199;53;20956;-72
2021/05/15 02:49:27;;;;;;;1.62;0.60;;;13.30;73.60;;;;;;2418042;53;20917;-73
2021/05/15 02:51:53;;;;;;;1.23;0.60;;;13.30;73.60;;;;;;2363572;53;21813;-73
2021/05/15 02:54:19;;;;;;;1.50;0.60;;;13.30;73.50;;;;;;2584723;53;20906;-75
2021/05/15 02:56:48;;;;;;;2.20;0.60;;;13.30;73.40;;;;;;2389070;53;20966;-74
2021/05/15 02:59:14;;;;;;;1.45;0.70;;;13.20;73.20;;;;;;2339857;54;21816;-74
2021/05/15 03:01:46;;;;;;;1.60;0.65;;;13.20;73.20;;;;;;2331463;53;20984;-73
2021/05/15 03:04:12;;;;;;;1.40;0.60;;;13.20;73.20;;;;;;2326870;53;20901;-73
2021/05/15 03:06:37;;;;;;;1.90;0.80;;;13.20;73.30;;;;;;2379259;53;20940;-72
2021/05/15 03:09:03;;;;;;;1.05;0.60;;;13.20;73.40;;;;;;2343129;54;20965;-72
2021/05/15 03:11:29;;;;;;;1.70;0.60;;;13.20;73.40;;;;;;2502608;53;20938;-73
2021/05/15 03:13:55;;;;;;;2.40;0.70;;;13.20;73.60;;;;;;2342836;53;20952;-74
2021/05/15 03:16:22;;;;;;;1.98;0.60;;;13.20;73.80;;;;;;2585151;52;21560;-72
2021/05/15 03:18:47;;;;;;;2.62;0.70;;;13.20;73.80;;;;;;2464396;53;20958;-72
2021/05/15 03:21:14;;;;;;;1.58;0.50;;;13.20;73.90;;;;;;2590507;52;20962;-75
2021/05/15 03:23:39;;;;;;;1.27;0.50;;;13.20;74.00;;;;;;2441455;52;20991;-73
2021/05/15 03:26:06;;;;;;;1.87;0.68;;;13.20;74.10;;;;;;2569284;53;20988;-73
2021/05/15 03:28:32;;;;;;;1.58;0.70;;;13.20;74.10;;;;;;2551393;53;20980;-74
2021/05/15 03:30:58;;;;;;;1.37;0.60;;;13.20;74.20;;;;;;2425340;53;21458;-72
2021/05/15 03:33:27;;;;;;;1.45;0.50;;;13.30;74.30;;;;;;2581907;52;21769;-70
2021/05/15 03:35:52;;;;;;;0.93;0.47;;;13.30;74.30;;;;;;2575205;52;20992;-72
2021/05/15 03:38:18;;;;;;;1.15;0.50;;;13.30;74.30;;;;;;2431769;53;21512;-72
2021/05/15 03:40:45;;;;;;;1.50;0.60;;;13.30;74.30;;;;;;2585893;52;20996;-75
2021/05/15 03:43:13;;;;;;;1.12;0.57;;;13.40;74.30;;;;;;2583594;52;21732;-73
2021/05/15 03:45:39;;;;;;;1.48;0.57;;;13.40;74.30;;;;;;2499797;53;20922;-71
2021/05/15 03:48:06;;;;;;;1.40;0.60;;;13.40;75.00;;;;;;2581872;53;20935;-73
2021/05/15 03:50:33;;;;;;;1.00;0.50;;;13.40;74.30;;;;;;2400244;53;21704;-74
2021/05/15 03:52:59;;;;;;;1.45;0.55;;;13.40;74.30;;;;;;2544502;52;20958;-72
2021/05/15 03:55:25;;;;;;;1.45;0.62;;;13.50;74.40;;;;;;2586536;52;21005;-74
2021/05/15 03:57:51;;;;;;;1.77;0.70;;;13.50;74.40;;;;;;2566537;53;20955;-74
2021/05/15 04:00:18;;;;;;;1.95;0.50;;;13.50;74.40;;;;;;2348891;53;21542;-71
2021/05/15 04:02:46;;;;;;;1.17;0.55;;;13.50;75.10;;;;;;2405199;52;20967;-73
2021/05/15 04:05:15;;;;;;;1.23;0.50;;;13.60;74.40;;;;;;2344132;54;20998;-72
2021/05/15 04:07:44;;;;;;;2.53;0.73;;;13.60;74.40;;;;;;2339683;53;21071;-72
2021/05/15 04:10:10;;;;;;;1.48;0.52;;;13.60;74.30;;;;;;2387892;52;20939;-73
2021/05/15 04:12:36;;;;;;;3.30;0.60;;;13.60;74.20;;;;;;2590800;52;20910;-73
2021/05/15 04:15:07;;;;;;;1.42;0.60;;;13.60;74.30;;;;;;2590418;52;20973;-72
2021/05/15 04:17:34;;;;;;;1.83;0.62;;;13.60;74.20;;;;;;2590609;52;20966;-72
2021/05/15 04:20:00;;;;;;;1.20;0.60;;;13.60;74.20;;;;;;2379666;53;20918;-72
2021/05/15 04:22:26;;;;;;;1.42;0.70;;;13.60;74.30;;;;;;2571013;53;21404;-73
2021/05/15 04:24:52;;;;;;;1.52;0.60;;;13.70;74.30;;;;;;2335276;53;20964;-74
2021/05/15 04:27:18;;;;;;;2.37;0.50;;;13.70;74.30;;;;;;2513317;52;21423;-71
2021/05/15 04:29:44;;;;;;;2.97;0.70;;;13.70;74.30;;;;;;2505281;53;20988;-73
2021/05/15 04:32:10;;;;;;;3.53;0.70;;;13.70;74.20;;;;;;2582426;52;21441;-73
2021/05/15 04:34:45;;;;;;;1.67;0.73;;;13.70;74.10;;;;;;2570440;52;20902;-73
2021/05/15 04:37:12;;;;;;;2.00;0.77;;;13.70;73.50;;;;;;2590544;52;20907;-72
2021/05/15 04:39:37;;;;;;;1.52;0.60;;;13.70;74.00;;;;;;2422829;52;21006;-71
2021/05/15 04:42:04;;;;;;;1.83;0.60;;;13.70;74.10;;;;;;2578347;53;20976;-75
2021/05/15 04:44:30;;;;;;;1.30;0.60;;;13.70;73.90;;;;;;2583547;52;20922;-74
2021/05/15 04:46:56;;;;;;;2.17;0.75;;;13.80;74.10;;;;;;2351153;53;20906;-73
2021/05/15 04:49:22;;;;;;;2.17;0.80;;;13.80;74.20;;;;;;2580656;53;21446;-72
2021/05/15 04:51:47;;;;;;;1.45;0.70;;;13.80;74.20;;;;;;2343534;54;20943;-72
2021/05/15 04:54:14;;;;;;;1.40;0.50;;;13.80;74.20;;;;;;2455823;52;21447;-71
2021/05/15 04:56:40;;;;;;;2.45;0.75;;;13.80;74.30;;;;;;2350472;53;20980;-71
2021/05/15 04:59:06;;;;;;;3.83;1.02;;;13.80;74.40;;;;;;2426507;53;21751;-74
2021/05/15 05:01:32;;;;;;;1.60;0.70;;;13.80;74.50;;;;;;2376709;52;21729;-71
2021/05/15 05:04:01;;;;;;;1.65;0.60;;;13.90;74.70;;;;;;2582910;52;20984;-73
2021/05/15 05:06:26;;;;;;;1.17;0.65;;;13.90;74.70;;;;;;2377531;54;21092;-74
2021/05/15 05:08:55;;;;;;;1.20;0.50;;;13.90;74.70;;;;;;2344926;54;20922;-71
2021/05/15 05:11:21;;;;;;;2.97;0.85;;;13.90;74.70;;;;;;2350693;53;21453;-74
2021/05/15 05:13:47;;;;;;;2.12;0.70;;;14.00;74.50;;;;;;2564639;53;20976;-74
2021/05/15 05:16:13;;;;;;;2.03;0.90;;;14.00;74.50;;;;;;2409855;53;20983;-73
2021/05/15 05:18:39;;;;;;;2.10;0.77;;;14.00;74.20;;;;;;2589945;52;20940;-73
2021/05/15 05:21:05;;;;;;;2.70;0.80;;;14.00;74.20;;;;;;2424394;53;20986;-72
2021/05/15 05:23:32;;;;;;;1.55;0.60;;;14.10;74.30;;;;;;2590396;52;21439;-74
2021/05/15 05:25:59;;;;;;;1.98;0.70;;;14.10;74.30;;;;;;2338277;54;20995;-71
2021/05/15 05:28:33;;;;;;;2.58;0.90;;;14.10;74.10;;;;;;2473058;53;20924;-72
2021/05/15 05:30:59;;;;;;;2.33;0.70;;;14.10;74.20;;;;;;2570846;53;20992;-72
2021/05/15 05:33:25;;;;;;;2.60;0.70;;;14.10;74.40;;;;;;2339261;54;20990;-72
2021/05/15 05:35:51;;;;;;;2.08;0.80;;;14.20;74.30;;;;;;2355446;53;21443;-70
2021/05/15 05:38:18;;;;;;;2.05;0.60;;;14.20;74.30;;;;;;2511871;52;21063;-72
2021/05/15 05:40:44;;;;;;;1.77;0.75;;;14.20;74.30;;;;;;2386344;53;20985;-74
2021/05/15 05:43:12;;;;;;;1.77;0.70;;;14.20;74.20;;;;;;2554953;53;21492;-73
2021/05/15 05:45:38;;;;;;;1.90;0.80;;;14.20;74.00;;;;;;2563545;53;21909;-74
2021/05/15 05:48:04;;;;;;;1.87;0.70;;;14.30;74.00;;;;;;2342912;54;20922;-74
2021/05/15 05:50:30;;;;;;;1.58;0.70;;;14.30;73.80;;;;;;2399655;53;20902;-71
2021/05/15 05:52:56;;;;;;;3.65;1.15;;;14.30;74.10;;;;;;2398947;53;20977;-71
2021/05/15 05:55:22;;;;;;;1.92;0.85;;;14.30;74.20;;;;;;2590506;52;20918;-72
2021/05/15 05:57:48;;;;;;;2.33;0.75;;;14.40;74.50;;;;;;2516494;53;21107;-75
2021/05/15 06:00:15;;;;;;;3.60;1.02;;;14.40;74.40;;;;;;2398063;52;20886;-70
2021/05/15 06:02:41;;;;;;;2.00;0.80;;;14.40;73.90;;;;;;2346578;53;20956;-73
2021/05/15 06:05:08;;;;;;;2.75;0.90;;;14.40;74.00;;;;;;2588073;52;20958;-72
2021/05/15 06:07:34;;;;;;;2.03;0.90;;;14.40;74.20;;;;;;2475017;52;21106;-74
2021/05/15 06:10:00;;;;;;;2.53;0.80;;;14.40;73.90;;;;;;2328605;54;20936;-73
2021/05/15 06:12:26;;;;;;;3.37;0.90;;;14.50;74.10;;;;;;2516288;52;20943;-74
2021/05/15 06:14:52;;;;;;;2.30;0.70;;;14.50;74.10;;;;;;2590414;52;20915;-74
2021/05/15 06:17:18;;;;;;;3.22;0.75;;;14.50;74.20;;;;;;2580393;52;21001;-73
2021/05/15 06:19:44;;;;;;;1.80;0.70;;;14.60;74.20;;;;;;2378491;53;20984;-73
2021/05/15 06:22:11;;;;;;;2.15;0.80;;;14.60;74.10;;;;;;2443298;52;21402;-74
2021/05/15 06:24:40;;;;;;;3.35;0.80;;;14.60;74.20;;;;;;2481371;52;20926;-72
2021/05/15 06:27:07;;;;;;;2.25;0.80;;;14.60;74.10;;;;;;2477921;52;20913;-71
2021/05/15 06:29:34;;;;;;;2.33;0.80;;;14.60;74.10;;;;;;2499236;53;20940;-72
2021/05/15 06:32:00;;;;;;;2.45;0.98;;;14.70;74.30;;;;;;2586766;52;20966;-72
2021/05/15 06:34:26;;;;;;;2.03;0.82;;;14.70;74.50;;;;;;2416835;52;20952;-73
2021/05/15 06:36:52;;;;;;;3.03;0.93;;;14.80;74.30;;;;;;2586967;52;21640;-73
2021/05/15 06:39:18;;;;;;;2.70;1.05;;;14.80;73.60;;;;;;2431776;52;20979;-72
2021/05/15 06:41:44;;;;;;;2.22;0.77;;;14.80;74.20;;;;;;2415775;53;20939;-73
2021/05/15 06:44:10;;;;;;;2.10;0.80;;;14.90;74.30;;;;;;2446971;52;21030;-71
2021/05/15 06:46:36;;;;;;;1.62;0.80;;;14.90;74.50;;;;;;2445763;53;21544;-75
2021/05/15 06:49:03;;;;;;;2.92;0.80;;;15.00;74.50;;;;;;2582279;52;21508;-71
2021/05/15 06:51:30;;;;;;;2.17;0.82;;;15.00;74.50;;;;;;2319610;54;21032;-74
2021/05/15 06:53:56;;;;;;;3.05;1.23;;;15.00;74.00;;;;;;2583792;52;21740;-73
2021/05/15 06:56:24;;;;;;;2.75;0.88;;;15.10;74.00;;;;;;2425510;52;21372;-70
2021/05/15 06:58:50;;;;;;;2.37;0.80;;;15.10;74.20;;;;;;2380923;53;20966;-74
2021/05/15 07:01:16;;;;;;;2.30;0.73;;;15.20;74.20;;;;;;2583158;52;20924;-70
2021/05/15 07:03:42;;;;;;;2.30;0.70;;;15.20;74.20;;;;;;2585056;52;21044;-72
2021/05/15 07:06:08;;;;;;;1.70;0.80;;;15.20;74.40;;;;;;2347112;53;20946;-74
2021/05/15 07:08:34;;;;;;;2.47;0.90;;;15.30;74.50;;;;;;2569940;53;20968;-73
2021/05/15 07:11:01;;;;;;;2.83;0.90;;;15.40;74.70;;;;;;2568996;52;20922;-74
2021/05/15 07:13:26;;;;;;;2.62;1.20;;;15.40;74.50;;;;;;2588233;52;20944;-74
2021/05/15 07:15:52;;;;;;;2.37;0.90;;;15.50;74.00;;;;;;2566876;53;21008;-74
2021/05/15 07:18:19;;;;;;;2.55;1.10;;;15.50;73.70;;;;;;2353285;54;21008;-74
2021/05/15 07:20:45;;;;;;;4.10;1.70;;;15.50;73.70;;;;;;2584185;53;20982;-72
2021/05/15 07:23:13;;;;;;;1.90;0.98;;;15.60;73.70;;;;;;2342727;53;20970;-72
2021/05/15 07:25:39;;;;;;;2.08;0.70;;;15.60;73.40;;;;;;2481427;52;21015;-74
2021/05/15 07:28:05;;;;;;;2.20;0.90;;;15.50;73.30;;;;;;2336690;53;20979;-73
2021/05/15 07:30:30;;;;;;;2.35;0.85;;;15.60;73.30;;;;;;2347239;54;21360;-73
2021/05/15 07:32:58;;;;;;;3.28;1.10;;;15.60;73.10;;;;;;2372343;53;20930;-72
2021/05/15 07:35:24;;;;;;;3.55;1.20;;;15.60;72.60;;;;;;2380351;53;21432;-75
2021/05/15 07:37:51;;;;;;;4.43;2.17;;;15.60;72.90;;;;;;2389816;53;20956;-72
2021/05/15 07:40:17;;;;;;;3.28;1.65;;;15.60;72.50;;;;;;2486862;52;20910;-74
2021/05/15 07:42:44;;;;;;;3.87;1.50;;;15.60;72.50;;;;;;2338607;54;20929;-73
2021/05/15 07:45:11;;;;;;;1.92;1.00;;;15.60;72.20;;;;;;2362644;53;20935;-71
2021/05/15 07:47:38;;;;;;;2.95;0.88;;;15.60;72.50;;;;;;2341280;53;20923;-71
2021/05/15 07:50:05;;;;;;;2.65;1.10;;;15.60;72.80;;;;;;2468269;52;21565;-74
2021/05/15 07:52:31;;;;;;;1.70;0.80;;;15.60;72.30;;;;;;2426313;52;21469;-71
2021/05/15 07:54:57;;;;;;;2.67;0.90;;;15.60;72.90;;;;;;2353241;53;21016;-74
2021/05/15 07:57:23;;;;;;;2.85;0.82;;;15.70;73.50;;;;;;2583702;52;20955;-73
2021/05/15 07:59:49;;;;;;;2.17;0.80;;;15.70;72.80;;;;;;2590250;52;20990;-72
2021/05/15 08:02:15;;;;;;;2.92;0.88;;;15.80;73.00;;;;;;2351450;53;20931;-73
2021/05/15 08:04:41;;;;;;;3.42;1.08;;;15.80;73.30;;;;;;2430744;52;20935;-71
2021/05/15 08:07:07;;;;;;;2.87;1.05;;;15.90;74.00;;;;;;2381246;53;21771;-73
2021/05/15 08:09:33;;;;;;;1.80;0.82;;;15.90;72.80;;;;;;2553876;52;20926;-73
2021/05/15 08:11:59;;;;;;;1.62;0.80;;;15.90;73.00;;;;;;2346596;54;21470;-73
2021/05/15 08:14:25;;;;;;;2.08;0.80;;;16.00;73.10;;;;;;2381260;53;20926;-72
2021/05/15 08:16:51;;;;;;;3.28;0.90;;;16.00;73.20;;;;;;2526099;52;20911;-73
2021/05/15 08:19:18;;;;;;;3.75;0.90;;;16.00;73.10;;;;;;2389010;52;21807;-72
2021/05/15 08:21:44;;;;;;;1.98;0.80;;;16.10;72.10;;;;;;2407078;52;20911;-73
2021/05/15 08:24:11;;;;;;;1.98;0.70;;;16.10;72.60;;;;;;2574764;52;20972;-71
2021/05/15 08:26:56;;;;;;;1.95;0.75;;;16.10;72.80;;;;;;2346392;54;21414;-71
2021/05/15 08:29:22;;;;;;;4.12;1.10;;;16.20;71.40;;;;;;2350595;53;21052;-73
2021/05/15 08:31:48;;;;;;;2.15;0.90;;;16.30;73.20;;;;;;2428327;53;21057;-72
2021/05/15 08:34:14;;;;;;;2.17;0.80;;;16.30;73.50;;;;;;2344483;54;20974;-73
2021/05/15 08:36:40;;;;;;;2.53;0.70;;;16.40;73.80;;;;;;2418989;52;20907;-74
2021/05/15 08:39:06;;;;;;;2.85;0.70;;;16.50;73.80;;;;;;2374452;53;21455;-73
2021/05/15 08:41:32;;;;;;;2.92;0.80;;;16.60;73.90;;;;;;2348852;53;21417;-73
2021/05/15 08:44:01;;;;;;;3.42;0.90;;;16.60;73.10;;;;;;2477641;53;20952;-72
2021/05/15 08:46:27;;;;;;;4.12;0.90;;;16.70;72.90;;;;;;2587075;52;20939;-73
2021/05/15 08:48:52;;;;;;;2.80;0.90;;;16.80;72.40;;;;;;2367318;52;21725;-74
2021/05/15 08:51:20;;;;;;;2.08;0.93;;;16.90;70.80;;;;;;2338931;53;20940;-73
2021/05/15 08:53:46;;;;;;;3.12;0.88;;;17.00;71.00;;;;;;2355706;53;21426;-73
2021/05/15 08:56:12;;;;;;;2.85;0.90;;;17.00;70.80;;;;;;2405888;53;20994;-73
2021/05/15 08:58:38;;;;;;;2.33;0.90;;;17.00;69.70;;;;;;2590800;52;20942;-74
2021/05/15 09:01:05;;;;;;;1.95;0.70;;;17.00;69.20;;;;;;2452122;52;21451;-72
2021/05/15 09:03:31;;;;;;;4.07;0.80;;;17.00;69.40;;;;;;2540188;52;20966;-73
2021/05/15 09:05:58;;;;;;;3.10;0.80;;;17.00;70.10;;;;;;2336843;54;21066;-73
2021/05/15 09:08:28;;;;;;;2.55;0.70;;;17.00;70.30;;;;;;2344637;54;20986;-72
2021/05/15 09:10:57;;;;;;;2.87;0.82;;;17.10;70.90;;;;;;2340315;54;21459;-73
2021/05/15 09:13:25;;;;;;;2.50;1.15;;;17.20;71.40;;;;;;2590652;52;20970;-73
2021/05/15 09:16:02;;;;;;;3.12;0.90;;;17.30;71.00;;;;;;2344350;54;20914;-73
2021/05/15 09:18:35;;;;;;;2.20;0.65;;;17.40;71.20;;;;;;2527322;53;20971;-72
2021/05/15 09:21:03;;;;;;;2.83;1.00;;;17.40;72.10;;;;;;2340181;54;20929;-74
2021/05/15 09:23:34;;;;;;;4.85;1.10;;;17.50;72.20;;;;;;2339748;55;21002;-73
2021/05/15 09:26:12;;;;;;;4.30;0.80;;;17.60;72.50;;;;;;2313843;55;20972;-73
2021/05/15 09:28:53;;;;;;;2.33;0.57;;;17.80;72.10;;;;;;2339458;54;20900;-74
2021/05/15 09:31:29;;;;;;;3.50;0.85;;;17.90;72.80;;;;;;2309623;54;20966;-73
2021/05/15 09:34:00;;;;;;;2.25;0.85;;;18.00;71.70;;;;;;2316455;54;20894;-71
2021/05/15 09:36:39;;;;;;;2.10;0.80;;;18.20;71.80;;;;;;2321940;54;20991;-73
2021/05/15 09:39:16;;;;;;;3.03;0.85;;;18.30;72.90;;;;;;2332651;54;21005;-74
2021/05/15 09:41:53;;;;;;;3.53;0.60;;;18.50;71.50;;;;;;2569605;53;20969;-72
2021/05/15 09:44:24;;;;;;;2.08;0.70;;;18.60;72.90;;;;;;2334070;54;20988;-72
2021/05/15 09:46:50;;;;;;;3.10;1.10;;;18.80;72.40;;;;;;2325615;54;21012;-72
2021/05/15 09:49:24;;;;;;;3.25;0.75;;;18.90;69.90;;;;;;2320298;54;21012;-73
2021/05/15 09:51:52;;;;;;;3.15;1.23;;;19.00;69.10;;;;;;2342095;54;20940;-73
2021/05/15 09:54:20;;;;;;;3.60;1.20;;;19.00;69.50;;;;;;2337160;53;20975;-72
2021/05/15 09:57:53;;;;;;;2.87;0.90;;;19.10;69.40;;;;;;2325854;53;21476;-72
2021/05/15 10:00:21;;;;;;;3.28;1.35;;;19.10;67.40;;;;;;2323968;53;21920;-72
2021/05/15 10:02:56;;;;;;;4.20;0.80;;;19.20;70.50;;;;;;2318738;53;20921;-75
2021/05/15 10:05:23;;;;;;;9.98;1.98;;;19.30;70.20;;;;;;2323290;54;21009;-74
2021/05/15 10:07:50;;;;;;;1.92;0.60;;;19.30;71.10;;;;;;2573750;53;20948;-74
2021/05/15 10:10:16;;;;;;;3.95;0.70;;;19.40;70.90;;;;;;2335250;54;20961;-73
2021/05/15 10:12:43;;;;;;;3.03;1.02;;;19.40;70.60;;;;;;2335760;54;20925;-73
2021/05/15 10:15:12;;;;;;;2.70;0.88;;;19.40;69.50;;;;;;2333282;54;21441;-73
2021/05/15 10:17:40;;;;;;;3.30;0.90;;;19.40;69.30;;;;;;2331103;54;21039;-74
2021/05/15 10:20:08;;;;;;;3.58;1.00;;;19.40;68.50;;;;;;2331992;54;21009;-74
2021/05/15 10:22:38;;;;;;;2.97;1.00;;;19.40;66.70;;;;;;2542788;53;20948;-72
2021/05/15 10:25:12;;;;;;;3.53;1.02;;;19.40;67.40;;;;;;2324672;55;21714;-73
2021/05/15 10:27:40;;;;;;;5.57;0.82;;;19.30;67.90;;;;;;2344153;54;20937;-73
2021/05/15 10:30:19;;;;;;;4.22;0.65;;;19.30;69.20;;;;;;2344248;55;21009;-73
2021/05/15 10:33:04;;;;;;;2.97;0.82;;;19.30;67.90;;;;;;2346758;54;20956;-73
2021/05/15 10:35:32;;;;;;;3.65;0.98;;;19.40;67.30;;;;;;2419666;53;21048;-72
2021/05/15 10:38:10;;;;;;;4.15;0.82;;;19.40;68.30;;;;;;2588732;53;21084;-72
2021/05/15 10:41:10;;;;;;;1.70;0.55;;;19.40;66.80;;;;;;2346276;54;20949;-72
2021/05/15 10:43:37;;;;;;;2.45;0.80;;;19.40;65.70;;;;;;2301114;55;21021;-74
2021/05/15 10:46:26;;;;;;;2.70;0.95;;;19.40;67.70;;;;;;2316976;54;20945;-73
2021/05/15 10:50:11;;;;;;;4.22;0.93;;;19.40;65.20;;;;;;2330479;54;20922;-72
2021/05/15 10:52:47;;;;;;;4.47;0.80;;;19.40;62.70;;;;;;2338537;55;21736;-72
2021/05/15 10:55:28;;;;;;;3.10;0.82;;;19.30;64.00;;;;;;2332556;54;20999;-73
2021/05/15 10:57:54;;;;;;;2.83;0.90;;;19.30;64.60;;;;;;2334252;54;21020;-72
2021/05/15 11:00:27;;;;;;;3.65;0.77;;;19.30;66.10;;;;;;2323874;54;21825;-73
2021/05/15 11:03:00;;;;;;;4.93;0.88;;;19.30;66.40;;;;;;2518137;53;21053;-72
2021/05/15 11:05:26;;;;;;;3.85;0.90;;;19.30;64.90;;;;;;2516535;52;21018;-71
2021/05/15 11:07:52;;;;;;;3.20;0.90;;;19.30;63.60;;;;;;2343653;54;20986;-73
2021/05/15 11:10:19;;;;;;;2.22;0.80;;;19.30;63.60;;;;;;2376991;52;21020;-74
2021/05/15 11:12:47;;;;;;;5.72;0.95;;;19.30;63.50;;;;;;2319475;54;20920;-74
2021/05/15 11:15:14;;;;;;;1.92;0.80;;;19.30;65.00;;;;;;2344108;54;20939;-70
2021/05/15 11:17:41;;;;;;;5.25;1.33;;;19.40;65.80;;;;;;2346816;54;20918;-73
2021/05/15 11:20:14;;;;;;;2.67;0.90;;;19.40;64.90;;;;;;2343611;54;20938;-74
2021/05/15 11:22:44;;;;;;;2.67;1.00;;;19.50;64.00;;;;;;2416335;53;20958;-73
2021/05/15 11:25:27;;;;;;;2.30;0.70;;;19.50;65.50;;;;;;2494420;53;21332;-74
2021/05/15 11:28:07;;;;;;;5.10;1.20;;;19.50;63.00;;;;;;2343374;53;20921;-74
2021/05/15 11:30:43;;;;;;;3.87;0.93;;;19.50;62.20;;;;;;2344561;54;21739;-71
2021/05/15 11:33:28;;;;;;;2.75;0.73;;;19.50;63.30;;;;;;2344476;54;20994;-73
2021/05/15 11:35:58;;;;;;;3.78;0.90;;;19.50;60.80;;;;;;2423391;52;20919;-72
2021/05/15 11:38:32;;;;;;;2.53;0.90;;;19.50;62.50;;;;;;2336741;54;21306;-74
2021/05/15 11:41:01;;;;;;;2.40;0.80;;;19.50;61.20;;;;;;2365028;53;20990;-71
2021/05/15 11:43:39;;;;;;;2.00;0.70;;;19.40;61.30;;;;;;2340139;54;20920;-74
2021/05/15 11:46:08;;;;;;;2.15;0.70;;;19.40;59.70;;;;;;2343289;53;20938;-72
2021/05/15 11:48:44;;;;;;;3.30;0.82;;;19.30;60.90;;;;;;2343508;54;20915;-73
2021/05/15 11:51:12;;;;;;;2.40;0.70;;;19.30;60.80;;;;;;2590160;52;20950;-73
2021/05/15 11:53:49;;;;;;;2.70;0.85;;;19.30;61.90;;;;;;2344262;54;20903;-72
2021/05/15 11:56:20;;;;;;;3.12;0.93;;;19.30;60.50;;;;;;2339226;55;22081;-73
2021/05/15 11:58:59;;;;;;;1.90;0.73;;;19.30;60.80;;;;;;2561612;53;20963;-73
2021/05/15 12:01:36;;;;;;;2.85;0.60;;;19.30;61.90;;;;;;2343840;54;21767;-72
2021/05/15 12:05:13;;;;;;;2.15;0.70;;;19.40;62.10;;;;;;2342965;54;21031;-72
2021/05/15 12:07:45;;;;;;;1.67;0.55;;;19.50;60.30;;;;;;2340239;54;20903;-72
2021/05/15 12:10:14;;;;;;;2.62;0.60;;;19.50;60.50;;;;;;2344186;54;21022;-75
2021/05/15 12:12:41;;;;;;;1.45;0.65;;;19.50;60.80;;;;;;2340479;54;20921;-72
2021/05/15 12:15:08;;;;;;;2.30;0.60;;;19.40;61.10;;;;;;2344011;54;20978;-72
2021/05/15 12:17:34;;;;;;;3.85;0.90;;;19.40;61.80;;;;;;2344454;54;20940;-74
2021/05/15 12:20:01;;;;;;;2.70;1.15;;;19.40;62.50;;;;;;2344497;54;20950;-73
2021/05/15 12:22:27;;;;;;;2.97;0.80;;;19.30;62.80;;;;;;2470069;52;20981;-74
2021/05/15 12:24:57;;;;;;;1.98;0.77;;;19.30;61.60;;;;;;2326706;54;20985;-74
2021/05/15 12:27:24;;;;;;;2.42;0.70;;;19.30;61.30;;;;;;2377859;53;21660;-74
2021/05/15 12:29:57;;;;;;;2.40;0.80;;;19.20;61.10;;;;;;2343720;54;20918;-74
2021/05/15 12:32:25;;;;;;;1.87;0.68;;;19.20;60.70;;;;;;2342022;53;21469;-75
2021/05/15 12:34:59;;;;;;;1.83;0.70;;;19.20;61.70;;;;;;2568538;52;20923;-74
2021/05/15 12:37:32;;;;;;;2.67;0.60;;;19.10;61.90;;;;;;2340053;54;21008;-72
2021/05/15 12:40:02;;;;;;;3.65;0.50;;;19.10;62.10;;;;;;2341901;54;20946;-74
2021/05/15 12:42:32;;;;;;;1.55;0.60;;;19.10;63.00;;;;;;2343370;54;20943;-73
2021/05/15 12:45:14;;;;;;;8.45;0.98;;;19.10;61.70;;;;;;2345228;54;21556;-73
2021/05/15 12:47:40;;;;;;;1.87;0.70;;;19.10;60.60;;;;;;2339386;54;20954;-71
2021/05/15 12:50:29;;;;;;;1.87;0.70;;;19.00;62.50;;;;;;2343904;54;20911;-72
2021/05/15 12:53:08;;;;;;;2.03;0.70;;;19.00;59.50;;;;;;2343627;54;21770;-72
2021/05/15 12:55:47;;;;;;;2.05;0.62;;;18.90;60.40;;;;;;2430139;52;20971;-72